sensor_id;sensor_type;location;lat;lon;timestamp;P1;durP1;ratioP1;P2;durP2;ratioP2
11835;SDS011;5977;51.972;7.640;2022-10-23T00:01:09;138.93;;;47.87;;
11835;SDS011;5977;51.972;7.640;2022-10-23T00:03:38;139.30;;;47.93;;
11835;SDS011;5977;51.972;7.640;2022-10-23T00:06:06;138.67;;;47.70;;
11835;SDS011;5977;51.972;7.640;2022-10-23T00:08:34;138.07;;;47.40;;
11835;SDS011;5977;51.972;7.640;2022-10-23T00:11:04;138.40;;;47.47;;
11835;SDS011;5977;51.972;7.640;2022-10-23T00:13:35;138.70;;;47.70;;
11835;SDS011;5977;51.972;7.640;2022-10-23T00:16:03;138.90;;;47.77;;
11835;SDS011;5977;51.972;7.640;2022-10-23T00:18:31;138.73;;;47.70;;
11835;SDS011;5977;51.972;7.640;2022-10-23T00:20:59;139.07;;;47.77;;
11835;SDS011;5977;51.972;7.640;2022-10-23T00:23:27;138.97;;;47.83;;
11835;SDS011;5977;51.972;7.640;2022-10-23T00:25:56;138.40;;;47.47;;
11835;SDS011;5977;51.972;7.640;2022-10-23T00:28:23;138.87;;;47.80;;
11835;SDS011;5977;51.972;7.640;2022-10-23T00:30:53;138.27;;;47.43;;
11835;SDS011;5977;51.972;7.640;2022-10-23T00:33:20;138.43;;;47.60;;
11835;SDS011;5977;51.972;7.640;2022-10-23T00:35:48;139.00;;;47.77;;
11835;SDS011;5977;51.972;7.640;2022-10-23T00:38:16;139.10;;;47.93;;
11835;SDS011;5977;51.972;7.640;2022-10-23T00:40:44;139.03;;;48.00;;
11835;SDS011;5977;51.972;7.640;2022-10-23T00:43:16;138.73;;;47.77;;
11835;SDS011;5977;51.972;7.640;2022-10-23T00:45:44;139.23;;;47.97;;
11835;SDS011;5977;51.972;7.640;2022-10-23T00:48:14;138.27;;;47.43;;
11835;SDS011;5977;51.972;7.640;2022-10-23T00:50:42;138.47;;;47.53;;
11835;SDS011;5977;51.972;7.640;2022-10-23T00:53:13;138.47;;;47.53;;
11835;SDS011;5977;51.972;7.640;2022-10-23T00:55:43;138.87;;;47.70;;
11835;SDS011;5977;51.972;7.640;2022-10-23T00:58:12;138.83;;;47.73;;
11835;SDS011;5977;51.972;7.640;2022-10-23T01:00:42;138.80;;;47.67;;
11835;SDS011;5977;51.972;7.640;2022-10-23T01:03:14;138.30;;;47.37;;
11835;SDS011;5977;51.972;7.640;2022-10-23T01:05:45;139.07;;;47.63;;
11835;SDS011;5977;51.972;7.640;2022-10-23T01:08:17;138.80;;;47.63;;
11835;SDS011;5977;51.972;7.640;2022-10-23T01:10:53;138.63;;;47.50;;
11835;SDS011;5977;51.972;7.640;2022-10-23T01:13:30;138.63;;;47.50;;
11835;SDS011;5977;51.972;7.640;2022-10-23T01:16:04;138.63;;;47.53;;
11835;SDS011;5977;51.972;7.640;2022-10-23T01:18:40;139.03;;;47.63;;
11835;SDS011;5977;51.972;7.640;2022-10-23T01:21:13;138.80;;;47.70;;
11835;SDS011;5977;51.972;7.640;2022-10-23T01:23:54;138.83;;;47.63;;
11835;SDS011;5977;51.972;7.640;2022-10-23T01:26:45;139.37;;;47.70;;
11835;SDS011;5977;51.972;7.640;2022-10-23T01:29:24;138.97;;;47.77;;
11835;SDS011;5977;51.972;7.640;2022-10-23T01:31:58;139.17;;;47.87;;
11835;SDS011;5977;51.972;7.640;2022-10-23T01:34:31;138.93;;;47.67;;
11835;SDS011;5977;51.972;7.640;2022-10-23T01:37:06;139.40;;;47.83;;
11835;SDS011;5977;51.972;7.640;2022-10-23T01:39:39;139.00;;;47.57;;
11835;SDS011;5977;51.972;7.640;2022-10-23T01:42:14;138.83;;;47.63;;
11835;SDS011;5977;51.972;7.640;2022-10-23T01:44:48;138.07;;;47.17;;
11835;SDS011;5977;51.972;7.640;2022-10-23T01:47:20;139.03;;;47.63;;
11835;SDS011;5977;51.972;7.640;2022-10-23T01:50:00;139.30;;;47.83;;
11835;SDS011;5977;51.972;7.640;2022-10-23T01:52:31;138.03;;;47.33;;
11835;SDS011;5977;51.972;7.640;2022-10-23T01:55:02;138.40;;;47.37;;
11835;SDS011;5977;51.972;7.640;2022-10-23T01:57:33;138.30;;;47.37;;
11835;SDS011;5977;51.972;7.640;2022-10-23T02:00:06;138.50;;;47.30;;
11835;SDS011;5977;51.972;7.640;2022-10-23T02:02:49;138.13;;;47.30;;
11835;SDS011;5977;51.972;7.640;2022-10-23T02:05:22;138.20;;;47.27;;
11835;SDS011;5977;51.972;7.640;2022-10-23T02:07:53;138.60;;;47.43;;
11835;SDS011;5977;51.972;7.640;2022-10-23T02:10:22;138.17;;;47.30;;
11835;SDS011;5977;51.972;7.640;2022-10-23T02:12:57;138.30;;;47.30;;
11835;SDS011;5977;51.972;7.640;2022-10-23T02:15:33;138.57;;;47.37;;
11835;SDS011;5977;51.972;7.640;2022-10-23T02:18:06;138.77;;;47.57;;
11835;SDS011;5977;51.972;7.640;2022-10-23T02:20:42;138.90;;;47.60;;
11835;SDS011;5977;51.972;7.640;2022-10-23T02:23:17;139.10;;;47.77;;
11835;SDS011;5977;51.972;7.640;2022-10-23T02:25:49;138.67;;;47.53;;
11835;SDS011;5977;51.972;7.640;2022-10-23T02:28:22;138.93;;;47.93;;
11835;SDS011;5977;51.972;7.640;2022-10-23T02:30:58;138.13;;;47.27;;
11835;SDS011;5977;51.972;7.640;2022-10-23T02:33:29;138.83;;;47.67;;
11835;SDS011;5977;51.972;7.640;2022-10-23T02:35:58;138.53;;;47.37;;
11835;SDS011;5977;51.972;7.640;2022-10-23T02:38:32;138.70;;;47.53;;
11835;SDS011;5977;51.972;7.640;2022-10-23T02:41:16;139.00;;;47.63;;
11835;SDS011;5977;51.972;7.640;2022-10-23T02:43:55;138.97;;;47.60;;
11835;SDS011;5977;51.972;7.640;2022-10-23T02:46:33;138.47;;;47.13;;
11835;SDS011;5977;51.972;7.640;2022-10-23T02:49:10;138.77;;;47.37;;
11835;SDS011;5977;51.972;7.640;2022-10-23T02:51:47;139.17;;;47.47;;
11835;SDS011;5977;51.972;7.640;2022-10-23T02:54:27;138.20;;;47.00;;
11835;SDS011;5977;51.972;7.640;2022-10-23T02:57:05;138.23;;;47.03;;
11835;SDS011;5977;51.972;7.640;2022-10-23T02:59:44;138.67;;;47.40;;
11835;SDS011;5977;51.972;7.640;2022-10-23T03:02:20;139.70;;;47.73;;
11835;SDS011;5977;51.972;7.640;2022-10-23T03:04:51;138.90;;;47.37;;
11835;SDS011;5977;51.972;7.640;2022-10-23T03:07:20;139.07;;;47.57;;
11835;SDS011;5977;51.972;7.640;2022-10-23T03:09:48;139.30;;;47.53;;
11835;SDS011;5977;51.972;7.640;2022-10-23T03:12:16;138.23;;;47.13;;
11835;SDS011;5977;51.972;7.640;2022-10-23T03:14:45;138.50;;;47.30;;
11835;SDS011;5977;51.972;7.640;2022-10-23T03:17:13;138.70;;;47.30;;
11835;SDS011;5977;51.972;7.640;2022-10-23T03:19:46;138.47;;;47.30;;
11835;SDS011;5977;51.972;7.640;2022-10-23T03:22:14;139.10;;;47.63;;
11835;SDS011;5977;51.972;7.640;2022-10-23T03:24:41;138.97;;;47.57;;
11835;SDS011;5977;51.972;7.640;2022-10-23T03:27:09;138.67;;;47.43;;
11835;SDS011;5977;51.972;7.640;2022-10-23T03:29:37;138.23;;;47.27;;
11835;SDS011;5977;51.972;7.640;2022-10-23T03:32:05;137.97;;;47.30;;
11835;SDS011;5977;51.972;7.640;2022-10-23T03:34:33;137.73;;;47.20;;
11835;SDS011;5977;51.972;7.640;2022-10-23T03:37:04;138.27;;;47.50;;
11835;SDS011;5977;51.972;7.640;2022-10-23T03:39:32;138.00;;;47.43;;
11835;SDS011;5977;51.972;7.640;2022-10-23T03:42:00;137.00;;;47.03;;
11835;SDS011;5977;51.972;7.640;2022-10-23T03:44:28;137.60;;;47.27;;
11835;SDS011;5977;51.972;7.640;2022-10-23T03:46:57;137.67;;;47.33;;
11835;SDS011;5977;51.972;7.640;2022-10-23T03:49:25;137.30;;;47.27;;
11835;SDS011;5977;51.972;7.640;2022-10-23T03:52:00;137.13;;;46.93;;
11835;SDS011;5977;51.972;7.640;2022-10-23T03:54:29;137.53;;;47.20;;
11835;SDS011;5977;51.972;7.640;2022-10-23T03:56:59;137.33;;;47.17;;
11835;SDS011;5977;51.972;7.640;2022-10-23T03:59:27;137.73;;;47.30;;
11835;SDS011;5977;51.972;7.640;2022-10-23T04:01:57;137.00;;;46.93;;
11835;SDS011;5977;51.972;7.640;2022-10-23T04:04:25;136.93;;;46.93;;
11835;SDS011;5977;51.972;7.640;2022-10-23T04:06:53;137.43;;;47.27;;
11835;SDS011;5977;51.972;7.640;2022-10-23T04:09:21;136.87;;;47.00;;
11835;SDS011;5977;51.972;7.640;2022-10-23T04:11:50;137.50;;;47.30;;
11835;SDS011;5977;51.972;7.640;2022-10-23T04:14:18;137.70;;;47.40;;
11835;SDS011;5977;51.972;7.640;2022-10-23T04:16:46;136.70;;;47.00;;
11835;SDS011;5977;51.972;7.640;2022-10-23T04:19:13;138.17;;;47.50;;
11835;SDS011;5977;51.972;7.640;2022-10-23T04:21:42;137.40;;;47.33;;
11835;SDS011;5977;51.972;7.640;2022-10-23T04:24:10;137.40;;;47.27;;
11835;SDS011;5977;51.972;7.640;2022-10-23T04:26:38;136.77;;;46.80;;
11835;SDS011;5977;51.972;7.640;2022-10-23T04:29:10;137.50;;;47.27;;
11835;SDS011;5977;51.972;7.640;2022-10-23T04:31:38;137.00;;;47.00;;
11835;SDS011;5977;51.972;7.640;2022-10-23T04:34:06;137.17;;;47.27;;
11835;SDS011;5977;51.972;7.640;2022-10-23T04:36:34;137.00;;;47.13;;
11835;SDS011;5977;51.972;7.640;2022-10-23T04:39:08;137.37;;;47.20;;
11835;SDS011;5977;51.972;7.640;2022-10-23T04:41:36;137.87;;;47.57;;
11835;SDS011;5977;51.972;7.640;2022-10-23T04:44:04;137.90;;;47.37;;
11835;SDS011;5977;51.972;7.640;2022-10-23T04:46:37;137.03;;;47.07;;
11835;SDS011;5977;51.972;7.640;2022-10-23T04:49:05;137.47;;;47.30;;
11835;SDS011;5977;51.972;7.640;2022-10-23T04:51:58;136.67;;;46.83;;
11835;SDS011;5977;51.972;7.640;2022-10-23T04:54:44;137.80;;;47.43;;
11835;SDS011;5977;51.972;7.640;2022-10-23T04:57:27;136.83;;;46.87;;
11835;SDS011;5977;51.972;7.640;2022-10-23T05:00:00;136.73;;;46.80;;
11835;SDS011;5977;51.972;7.640;2022-10-23T05:02:36;136.77;;;46.77;;
11835;SDS011;5977;51.972;7.640;2022-10-23T05:05:05;136.37;;;46.57;;
11835;SDS011;5977;51.972;7.640;2022-10-23T05:07:33;136.43;;;46.63;;
11835;SDS011;5977;51.972;7.640;2022-10-23T05:10:12;137.27;;;46.87;;
11835;SDS011;5977;51.972;7.640;2022-10-23T05:12:52;136.10;;;46.43;;
11835;SDS011;5977;51.972;7.640;2022-10-23T05:15:19;136.33;;;46.43;;
11835;SDS011;5977;51.972;7.640;2022-10-23T05:17:50;136.23;;;46.30;;
11835;SDS011;5977;51.972;7.640;2022-10-23T05:20:24;136.43;;;47.13;;
11835;SDS011;5977;51.972;7.640;2022-10-23T05:22:55;135.90;;;46.30;;
11835;SDS011;5977;51.972;7.640;2022-10-23T05:25:26;136.77;;;46.57;;
11835;SDS011;5977;51.972;7.640;2022-10-23T05:28:03;136.23;;;46.57;;
11835;SDS011;5977;51.972;7.640;2022-10-23T05:30:31;135.83;;;46.20;;
11835;SDS011;5977;51.972;7.640;2022-10-23T05:33:02;135.83;;;46.07;;
11835;SDS011;5977;51.972;7.640;2022-10-23T05:35:37;135.87;;;46.13;;
11835;SDS011;5977;51.972;7.640;2022-10-23T05:38:07;136.00;;;46.23;;
11835;SDS011;5977;51.972;7.640;2022-10-23T05:40:36;136.10;;;46.30;;
11835;SDS011;5977;51.972;7.640;2022-10-23T05:43:14;135.93;;;46.17;;
11835;SDS011;5977;51.972;7.640;2022-10-23T05:45:48;136.07;;;46.30;;
11835;SDS011;5977;51.972;7.640;2022-10-23T05:48:38;136.20;;;46.37;;
11835;SDS011;5977;51.972;7.640;2022-10-23T05:51:27;135.83;;;46.23;;
11835;SDS011;5977;51.972;7.640;2022-10-23T05:54:03;136.00;;;46.30;;
11835;SDS011;5977;51.972;7.640;2022-10-23T05:56:51;135.13;;;45.90;;
11835;SDS011;5977;51.972;7.640;2022-10-23T05:59:29;136.43;;;46.43;;
11835;SDS011;5977;51.972;7.640;2022-10-23T06:02:18;136.07;;;46.23;;
11835;SDS011;5977;51.972;7.640;2022-10-23T06:04:53;136.60;;;46.50;;
11835;SDS011;5977;51.972;7.640;2022-10-23T06:07:39;135.57;;;46.00;;
11835;SDS011;5977;51.972;7.640;2022-10-23T06:10:09;136.53;;;46.50;;
11835;SDS011;5977;51.972;7.640;2022-10-23T06:12:43;136.23;;;46.30;;
11835;SDS011;5977;51.972;7.640;2022-10-23T06:15:14;135.90;;;46.20;;
11835;SDS011;5977;51.972;7.640;2022-10-23T06:18:03;135.70;;;46.10;;
11835;SDS011;5977;51.972;7.640;2022-10-23T06:20:36;135.83;;;46.27;;
11835;SDS011;5977;51.972;7.640;2022-10-23T06:23:13;135.17;;;45.87;;
11835;SDS011;5977;51.972;7.640;2022-10-23T06:26:09;135.50;;;46.20;;
11835;SDS011;5977;51.972;7.640;2022-10-23T06:29:05;134.70;;;45.70;;
11835;SDS011;5977;51.972;7.640;2022-10-23T06:31:33;135.60;;;46.10;;
11835;SDS011;5977;51.972;7.640;2022-10-23T06:34:02;135.63;;;46.03;;
11835;SDS011;5977;51.972;7.640;2022-10-23T06:36:32;135.07;;;45.90;;
11835;SDS011;5977;51.972;7.640;2022-10-23T06:39:12;135.47;;;46.10;;
11835;SDS011;5977;51.972;7.640;2022-10-23T06:41:52;134.60;;;45.77;;
11835;SDS011;5977;51.972;7.640;2022-10-23T06:44:38;134.43;;;45.73;;
11835;SDS011;5977;51.972;7.640;2022-10-23T06:47:07;135.70;;;46.27;;
11835;SDS011;5977;51.972;7.640;2022-10-23T06:50:14;135.63;;;46.10;;
11835;SDS011;5977;51.972;7.640;2022-10-23T06:52:45;134.83;;;45.87;;
11835;SDS011;5977;51.972;7.640;2022-10-23T06:55:16;135.37;;;45.97;;
11835;SDS011;5977;51.972;7.640;2022-10-23T06:57:44;135.37;;;46.13;;
11835;SDS011;5977;51.972;7.640;2022-10-23T07:00:13;135.30;;;45.90;;
11835;SDS011;5977;51.972;7.640;2022-10-23T07:02:48;134.87;;;45.87;;
11835;SDS011;5977;51.972;7.640;2022-10-23T07:05:16;135.10;;;45.80;;
11835;SDS011;5977;51.972;7.640;2022-10-23T07:07:45;134.80;;;45.67;;
11835;SDS011;5977;51.972;7.640;2022-10-23T07:10:19;135.53;;;46.07;;
11835;SDS011;5977;51.972;7.640;2022-10-23T07:12:54;135.33;;;46.13;;
11835;SDS011;5977;51.972;7.640;2022-10-23T07:15:46;135.27;;;45.97;;
11835;SDS011;5977;51.972;7.640;2022-10-23T07:18:20;135.60;;;46.30;;
11835;SDS011;5977;51.972;7.640;2022-10-23T07:21:11;135.27;;;46.00;;
11835;SDS011;5977;51.972;7.640;2022-10-23T07:23:40;134.23;;;45.63;;
11835;SDS011;5977;51.972;7.640;2022-10-23T07:26:10;135.20;;;46.03;;
11835;SDS011;5977;51.972;7.640;2022-10-23T07:28:40;135.67;;;46.37;;
11835;SDS011;5977;51.972;7.640;2022-10-23T07:31:11;135.80;;;46.27;;
11835;SDS011;5977;51.972;7.640;2022-10-23T07:33:58;135.33;;;46.07;;
11835;SDS011;5977;51.972;7.640;2022-10-23T07:36:26;135.70;;;46.40;;
11835;SDS011;5977;51.972;7.640;2022-10-23T07:38:55;135.13;;;46.20;;
11835;SDS011;5977;51.972;7.640;2022-10-23T07:41:23;135.13;;;46.10;;
11835;SDS011;5977;51.972;7.640;2022-10-23T07:43:51;135.23;;;46.07;;
11835;SDS011;5977;51.972;7.640;2022-10-23T07:46:19;135.20;;;46.00;;
11835;SDS011;5977;51.972;7.640;2022-10-23T07:48:47;135.50;;;46.23;;
11835;SDS011;5977;51.972;7.640;2022-10-23T07:51:15;134.77;;;46.03;;
11835;SDS011;5977;51.972;7.640;2022-10-23T07:53:46;134.90;;;46.03;;
11835;SDS011;5977;51.972;7.640;2022-10-23T07:56:31;135.93;;;46.47;;
11835;SDS011;5977;51.972;7.640;2022-10-23T07:59:12;135.57;;;46.20;;
11835;SDS011;5977;51.972;7.640;2022-10-23T08:01:46;135.87;;;46.47;;
11835;SDS011;5977;51.972;7.640;2022-10-23T08:04:19;135.30;;;46.13;;
11835;SDS011;5977;51.972;7.640;2022-10-23T08:07:00;135.20;;;46.17;;
11835;SDS011;5977;51.972;7.640;2022-10-23T08:09:34;136.10;;;46.53;;
11835;SDS011;5977;51.972;7.640;2022-10-23T08:12:04;135.63;;;46.30;;
11835;SDS011;5977;51.972;7.640;2022-10-23T08:14:32;135.77;;;46.30;;
11835;SDS011;5977;51.972;7.640;2022-10-23T08:17:00;135.73;;;46.53;;
11835;SDS011;5977;51.972;7.640;2022-10-23T08:19:59;135.57;;;46.37;;
11835;SDS011;5977;51.972;7.640;2022-10-23T08:22:33;135.97;;;46.40;;
11835;SDS011;5977;51.972;7.640;2022-10-23T08:25:02;135.50;;;46.33;;
11835;SDS011;5977;51.972;7.640;2022-10-23T08:27:32;135.83;;;46.43;;
11835;SDS011;5977;51.972;7.640;2022-10-23T08:30:00;135.47;;;46.30;;
11835;SDS011;5977;51.972;7.640;2022-10-23T08:32:28;135.47;;;46.13;;
11835;SDS011;5977;51.972;7.640;2022-10-23T08:34:58;135.87;;;46.40;;
11835;SDS011;5977;51.972;7.640;2022-10-23T08:37:28;136.03;;;46.57;;
11835;SDS011;5977;51.972;7.640;2022-10-23T08:39:56;135.73;;;46.30;;
11835;SDS011;5977;51.972;7.640;2022-10-23T08:42:56;135.70;;;46.53;;
11835;SDS011;5977;51.972;7.640;2022-10-23T08:45:29;135.43;;;46.50;;
11835;SDS011;5977;51.972;7.640;2022-10-23T08:48:27;135.43;;;46.40;;
11835;SDS011;5977;51.972;7.640;2022-10-23T08:51:26;135.87;;;46.50;;
11835;SDS011;5977;51.972;7.640;2022-10-23T08:54:01;135.77;;;46.47;;
11835;SDS011;5977;51.972;7.640;2022-10-23T08:56:34;135.70;;;46.47;;
11835;SDS011;5977;51.972;7.640;2022-10-23T08:59:10;135.90;;;46.60;;
11835;SDS011;5977;51.972;7.640;2022-10-23T09:01:46;135.83;;;46.50;;
11835;SDS011;5977;51.972;7.640;2022-10-23T09:04:18;136.60;;;46.90;;
11835;SDS011;5977;51.972;7.640;2022-10-23T09:06:47;136.67;;;47.00;;
11835;SDS011;5977;51.972;7.640;2022-10-23T09:09:33;136.97;;;47.07;;
11835;SDS011;5977;51.972;7.640;2022-10-23T09:12:13;137.83;;;47.87;;
11835;SDS011;5977;51.972;7.640;2022-10-23T09:14:51;137.17;;;47.37;;
11835;SDS011;5977;51.972;7.640;2022-10-23T09:17:29;136.07;;;46.77;;
11835;SDS011;5977;51.972;7.640;2022-10-23T09:19:59;136.83;;;47.03;;
11835;SDS011;5977;51.972;7.640;2022-10-23T09:22:36;137.10;;;47.23;;
11835;SDS011;5977;51.972;7.640;2022-10-23T09:25:07;137.27;;;47.30;;
11835;SDS011;5977;51.972;7.640;2022-10-23T09:27:36;137.03;;;47.27;;
11835;SDS011;5977;51.972;7.640;2022-10-23T09:30:06;137.30;;;47.47;;
11835;SDS011;5977;51.972;7.640;2022-10-23T09:32:36;136.90;;;47.00;;
11835;SDS011;5977;51.972;7.640;2022-10-23T09:35:05;137.20;;;47.37;;
11835;SDS011;5977;51.972;7.640;2022-10-23T09:37:46;136.77;;;47.03;;
11835;SDS011;5977;51.972;7.640;2022-10-23T09:40:20;137.30;;;47.17;;
11835;SDS011;5977;51.972;7.640;2022-10-23T09:42:59;136.90;;;47.07;;
11835;SDS011;5977;51.972;7.640;2022-10-23T09:45:31;138.00;;;47.63;;
11835;SDS011;5977;51.972;7.640;2022-10-23T09:48:09;137.70;;;47.53;;
11835;SDS011;5977;51.972;7.640;2022-10-23T09:50:41;137.00;;;47.10;;
11835;SDS011;5977;51.972;7.640;2022-10-23T09:53:14;137.10;;;47.17;;
11835;SDS011;5977;51.972;7.640;2022-10-23T09:55:49;136.80;;;47.20;;
11835;SDS011;5977;51.972;7.640;2022-10-23T09:58:20;137.00;;;47.13;;
11835;SDS011;5977;51.972;7.640;2022-10-23T10:00:52;137.47;;;47.33;;
11835;SDS011;5977;51.972;7.640;2022-10-23T10:03:36;137.47;;;47.43;;
11835;SDS011;5977;51.972;7.640;2022-10-23T10:06:17;137.20;;;47.33;;
11835;SDS011;5977;51.972;7.640;2022-10-23T10:08:49;137.73;;;47.40;;
11835;SDS011;5977;51.972;7.640;2022-10-23T10:11:20;138.33;;;47.83;;
11835;SDS011;5977;51.972;7.640;2022-10-23T10:16:57;136.57;;;47.07;;
11835;SDS011;5977;51.972;7.640;2022-10-23T10:19:35;138.07;;;47.80;;
11835;SDS011;5977;51.972;7.640;2022-10-23T10:22:15;137.20;;;47.30;;
11835;SDS011;5977;51.972;7.640;2022-10-23T10:24:53;137.97;;;47.60;;
11835;SDS011;5977;51.972;7.640;2022-10-23T10:27:30;138.07;;;47.67;;
11835;SDS011;5977;51.972;7.640;2022-10-23T10:30:10;137.60;;;47.40;;
11835;SDS011;5977;51.972;7.640;2022-10-23T10:32:44;138.00;;;47.77;;
11835;SDS011;5977;51.972;7.640;2022-10-23T10:35:24;137.50;;;47.33;;
11835;SDS011;5977;51.972;7.640;2022-10-23T10:38:09;137.20;;;47.30;;
11835;SDS011;5977;51.972;7.640;2022-10-23T10:40:46;138.23;;;47.70;;
11835;SDS011;5977;51.972;7.640;2022-10-23T10:43:28;137.97;;;47.90;;
11835;SDS011;5977;51.972;7.640;2022-10-23T10:46:08;137.77;;;47.50;;
11835;SDS011;5977;51.972;7.640;2022-10-23T10:48:45;138.07;;;47.60;;
11835;SDS011;5977;51.972;7.640;2022-10-23T10:51:39;138.57;;;48.00;;
11835;SDS011;5977;51.972;7.640;2022-10-23T10:54:20;138.23;;;47.63;;
11835;SDS011;5977;51.972;7.640;2022-10-23T10:57:03;138.60;;;48.03;;
11835;SDS011;5977;51.972;7.640;2022-10-23T10:59:38;138.90;;;48.10;;
11835;SDS011;5977;51.972;7.640;2022-10-23T11:02:14;138.17;;;47.77;;
11835;SDS011;5977;51.972;7.640;2022-10-23T11:04:54;137.73;;;47.40;;
11835;SDS011;5977;51.972;7.640;2022-10-23T11:07:28;138.13;;;47.87;;
11835;SDS011;5977;51.972;7.640;2022-10-23T11:10:02;138.13;;;47.53;;
11835;SDS011;5977;51.972;7.640;2022-10-23T11:12:39;138.13;;;47.63;;
11835;SDS011;5977;51.972;7.640;2022-10-23T11:15:13;137.77;;;47.63;;
11835;SDS011;5977;51.972;7.640;2022-10-23T11:17:43;138.07;;;47.77;;
11835;SDS011;5977;51.972;7.640;2022-10-23T11:20:19;138.40;;;47.83;;
11835;SDS011;5977;51.972;7.640;2022-10-23T11:23:07;138.60;;;47.80;;
11835;SDS011;5977;51.972;7.640;2022-10-23T11:25:52;138.10;;;47.67;;
11835;SDS011;5977;51.972;7.640;2022-10-23T11:28:33;138.23;;;47.67;;
11835;SDS011;5977;51.972;7.640;2022-10-23T11:31:15;138.20;;;47.73;;
11835;SDS011;5977;51.972;7.640;2022-10-23T11:34:03;138.67;;;48.13;;
11835;SDS011;5977;51.972;7.640;2022-10-23T11:36:51;138.30;;;47.80;;
11835;SDS011;5977;51.972;7.640;2022-10-23T11:39:21;138.47;;;47.80;;
11835;SDS011;5977;51.972;7.640;2022-10-23T11:41:56;138.17;;;47.60;;
11835;SDS011;5977;51.972;7.640;2022-10-23T11:44:27;138.43;;;47.63;;
11835;SDS011;5977;51.972;7.640;2022-10-23T11:50:10;138.43;;;47.83;;
11835;SDS011;5977;51.972;7.640;2022-10-23T11:52:53;138.37;;;47.77;;
11835;SDS011;5977;51.972;7.640;2022-10-23T11:55:38;138.23;;;47.60;;
11835;SDS011;5977;51.972;7.640;2022-10-23T11:58:16;138.07;;;47.60;;
11835;SDS011;5977;51.972;7.640;2022-10-23T12:00:51;138.47;;;47.87;;
11835;SDS011;5977;51.972;7.640;2022-10-23T12:03:23;138.37;;;47.87;;
11835;SDS011;5977;51.972;7.640;2022-10-23T12:05:56;138.80;;;47.87;;
11835;SDS011;5977;51.972;7.640;2022-10-23T12:08:28;138.80;;;47.97;;
11835;SDS011;5977;51.972;7.640;2022-10-23T12:10:58;138.70;;;47.93;;
11835;SDS011;5977;51.972;7.640;2022-10-23T12:13:31;138.03;;;47.50;;
11835;SDS011;5977;51.972;7.640;2022-10-23T12:16:12;138.43;;;47.87;;
11835;SDS011;5977;51.972;7.640;2022-10-23T12:18:43;138.93;;;48.10;;
11835;SDS011;5977;51.972;7.640;2022-10-23T12:21:14;138.43;;;47.97;;
11835;SDS011;5977;51.972;7.640;2022-10-23T12:24:00;138.87;;;48.10;;
11835;SDS011;5977;51.972;7.640;2022-10-23T12:29:37;138.03;;;47.50;;
11835;SDS011;5977;51.972;7.640;2022-10-23T12:32:27;138.10;;;47.67;;
11835;SDS011;5977;51.972;7.640;2022-10-23T12:35:08;138.93;;;48.10;;
11835;SDS011;5977;51.972;7.640;2022-10-23T12:37:53;138.30;;;47.80;;
11835;SDS011;5977;51.972;7.640;2022-10-23T12:40:32;138.37;;;47.77;;
11835;SDS011;5977;51.972;7.640;2022-10-23T12:43:00;137.97;;;47.40;;
11835;SDS011;5977;51.972;7.640;2022-10-23T12:45:29;139.07;;;48.33;;
11835;SDS011;5977;51.972;7.640;2022-10-23T12:47:59;138.43;;;47.87;;
11835;SDS011;5977;51.972;7.640;2022-10-23T12:50:27;138.33;;;47.83;;
11835;SDS011;5977;51.972;7.640;2022-10-23T12:52:56;138.57;;;48.00;;
11835;SDS011;5977;51.972;7.640;2022-10-23T12:55:28;138.87;;;48.07;;
11835;SDS011;5977;51.972;7.640;2022-10-23T12:58:02;138.27;;;47.70;;
11835;SDS011;5977;51.972;7.640;2022-10-23T13:00:30;139.50;;;48.37;;
11835;SDS011;5977;51.972;7.640;2022-10-23T13:02:58;137.93;;;47.67;;
11835;SDS011;5977;51.972;7.640;2022-10-23T13:05:27;138.30;;;47.87;;
11835;SDS011;5977;51.972;7.640;2022-10-23T13:07:56;139.23;;;48.20;;
11835;SDS011;5977;51.972;7.640;2022-10-23T13:10:39;138.87;;;48.20;;
11835;SDS011;5977;51.972;7.640;2022-10-23T13:13:10;138.13;;;47.83;;
11835;SDS011;5977;51.972;7.640;2022-10-23T13:15:40;139.43;;;48.47;;
11835;SDS011;5977;51.972;7.640;2022-10-23T13:18:10;138.90;;;48.00;;
11835;SDS011;5977;51.972;7.640;2022-10-23T13:20:40;138.87;;;48.27;;
11835;SDS011;5977;51.972;7.640;2022-10-23T13:23:10;139.17;;;48.47;;
11835;SDS011;5977;51.972;7.640;2022-10-23T13:25:51;139.20;;;48.33;;
11835;SDS011;5977;51.972;7.640;2022-10-23T13:28:22;138.50;;;47.83;;
11835;SDS011;5977;51.972;7.640;2022-10-23T13:31:05;138.43;;;47.97;;
11835;SDS011;5977;51.972;7.640;2022-10-23T13:33:51;139.30;;;48.33;;
11835;SDS011;5977;51.972;7.640;2022-10-23T13:36:33;138.63;;;48.03;;
11835;SDS011;5977;51.972;7.640;2022-10-23T13:39:12;139.03;;;48.23;;
11835;SDS011;5977;51.972;7.640;2022-10-23T13:41:41;138.73;;;48.27;;
11835;SDS011;5977;51.972;7.640;2022-10-23T13:44:13;138.40;;;47.90;;
11835;SDS011;5977;51.972;7.640;2022-10-23T13:46:41;139.17;;;48.13;;
11835;SDS011;5977;51.972;7.640;2022-10-23T13:49:10;138.80;;;47.97;;
11835;SDS011;5977;51.972;7.640;2022-10-23T13:51:39;139.53;;;48.50;;
11835;SDS011;5977;51.972;7.640;2022-10-23T13:54:11;140.13;;;48.60;;
11835;SDS011;5977;51.972;7.640;2022-10-23T13:56:41;139.43;;;48.30;;
11835;SDS011;5977;51.972;7.640;2022-10-23T13:59:09;139.47;;;48.53;;
11835;SDS011;5977;51.972;7.640;2022-10-23T14:01:39;139.10;;;48.13;;
11835;SDS011;5977;51.972;7.640;2022-10-23T14:04:08;139.30;;;48.47;;
11835;SDS011;5977;51.972;7.640;2022-10-23T14:06:37;139.47;;;48.40;;
11835;SDS011;5977;51.972;7.640;2022-10-23T14:09:06;139.40;;;48.27;;
11835;SDS011;5977;51.972;7.640;2022-10-23T14:11:36;138.67;;;48.10;;
11835;SDS011;5977;51.972;7.640;2022-10-23T14:14:05;139.47;;;48.40;;
11835;SDS011;5977;51.972;7.640;2022-10-23T14:16:34;139.37;;;48.23;;
11835;SDS011;5977;51.972;7.640;2022-10-23T14:19:02;138.63;;;47.97;;
11835;SDS011;5977;51.972;7.640;2022-10-23T14:21:30;140.13;;;48.80;;
11835;SDS011;5977;51.972;7.640;2022-10-23T14:23:58;139.47;;;48.33;;
11835;SDS011;5977;51.972;7.640;2022-10-23T14:26:26;139.60;;;48.67;;
11835;SDS011;5977;51.972;7.640;2022-10-23T14:28:55;139.53;;;48.30;;
11835;SDS011;5977;51.972;7.640;2022-10-23T14:31:32;138.53;;;48.17;;
11835;SDS011;5977;51.972;7.640;2022-10-23T14:34:01;139.67;;;48.53;;
11835;SDS011;5977;51.972;7.640;2022-10-23T14:36:29;138.90;;;48.23;;
11835;SDS011;5977;51.972;7.640;2022-10-23T14:39:15;139.90;;;48.53;;
11835;SDS011;5977;51.972;7.640;2022-10-23T14:41:43;139.57;;;48.40;;
11835;SDS011;5977;51.972;7.640;2022-10-23T14:44:11;138.33;;;47.83;;
11835;SDS011;5977;51.972;7.640;2022-10-23T14:46:39;139.03;;;48.43;;
11835;SDS011;5977;51.972;7.640;2022-10-23T14:49:08;139.40;;;48.33;;
11835;SDS011;5977;51.972;7.640;2022-10-23T14:51:36;138.77;;;48.07;;
11835;SDS011;5977;51.972;7.640;2022-10-23T14:54:04;139.27;;;48.23;;
11835;SDS011;5977;51.972;7.640;2022-10-23T14:56:34;138.43;;;47.83;;
11835;SDS011;5977;51.972;7.640;2022-10-23T14:59:04;138.40;;;48.00;;
11835;SDS011;5977;51.972;7.640;2022-10-23T15:01:33;138.10;;;47.63;;
11835;SDS011;5977;51.972;7.640;2022-10-23T15:04:11;138.63;;;48.23;;
11835;SDS011;5977;51.972;7.640;2022-10-23T15:06:40;138.70;;;48.07;;
11835;SDS011;5977;51.972;7.640;2022-10-23T15:09:08;139.03;;;48.30;;